Flight Track Log - Related Links

Times and Time Zones

All times are in EDT time to prevent confusion due to time zone crossing. See the SKW6440 flight status page for this flight to view local times or setup timezone preferences in your user account.

Time Position Orientation Groundspeed Altitude Reporting Facility
EDT Latitude Longitude Course Direction KTS MPH feet Rate Location/Type
Mon 07:11:39 PM 33.9333 -118.4333 63° Northeast 165 190 1,400  Level Southern California TRACON
Mon 07:12:46 PM 33.9125 -118.5167 253° West 236 272 3,200 2,043 Climbing Los Angeles Center
Mon 07:14:00 PM 34.1965 -117.9404 59° Northeast  Level FlightAware Approximate
Mon 07:14:00 PM 33.8483 -118.5697 214° Southwest 274 315 6,200  Level Los Angeles Center
Mon 07:15:00 PM 34.2663 -117.8178 68° East  Level FlightAware Approximate
Mon 07:15:02 PM 33.8419 -118.4894 95° East 292 336 8,400  Level Los Angeles Center
Mon 07:16:00 PM 34.3374 -117.6888 55° Northeast  Level FlightAware Approximate
Mon 07:16:04 PM 33.9031 -118.4458 31° Northeast 286 329 10,300  Level Los Angeles Center
Mon 07:17:00 PM 34.4179 -117.5638 63° Northeast  Level FlightAware Approximate
Mon 07:17:06 PM 33.9742 -118.3600 45° Northeast 309 356 13,000  Level Los Angeles Center
Mon 07:18:08 PM 34.0261 -118.2711 55° Northeast 318 366 14,900 1,887 Climbing Los Angeles Center
Mon 07:19:10 PM 34.0781 -118.1772 56° Northeast 329 379 16,900 1,887 Climbing Los Angeles Center
Mon 07:20:12 PM 34.1331 -118.0806 55° Northeast 343 395 18,800 1,790 Climbing Los Angeles Center
Mon 07:21:14 PM 34.1892 -117.9817 56° Northeast 351 404 20,600 1,742 Climbing Los Angeles Center
Mon 07:22:16 PM 34.2458 -117.8814 56° Northeast 359 413 22,400 1,610 Climbing Los Angeles Center
Mon 07:23:17 PM 34.3028 -117.7792 56° Northeast 364 419 23,900 1,561 Climbing Los Angeles Center
Mon 07:24:19 PM 34.3733 -117.6503 56° Northeast 382 440 25,600 1,210 Climbing Los Angeles Center
Mon 07:25:21 PM 34.4139 -117.5781 56° Northeast 389 448 26,400 1,161 Climbing Los Angeles Center
Mon 07:26:23 PM 34.5039 -117.4264 54° Northeast 401 461 28,000 1,113 Climbing Los Angeles Center
Mon 07:27:25 PM 34.5794 -117.3203 49° Northeast 415 478 28,700 581 Climbing Los Angeles Center
Mon 07:28:27 PM 34.6569 -117.2111 49° Northeast 428 493 29,200 484 Climbing Los Angeles Center
Mon 07:29:29 PM 34.7386 -117.0964 49° Northeast 448 516 29,700 532 Climbing Los Angeles Center
Mon 07:30:31 PM 34.8231 -116.9769 49° Northeast 464 534 30,300 720 Climbing Los Angeles Center
Mon 07:31:34 PM 34.9258 -116.8322 49° Northeast 473 544 31,200 919 Climbing Los Angeles Center
Mon 07:32:35 PM 35.0114 -116.7111 49° Northeast 473 544 32,200 976 Climbing Los Angeles Center
Mon 07:33:37 PM 35.0967 -116.5894 49° Northeast 475 547 33,200 968 Climbing Los Angeles Center
Mon 07:34:39 PM 35.1789 -116.4714 50° Northeast 464 534 34,200 968 Climbing Los Angeles Center
Mon 07:35:41 PM 35.2608 -116.3522 50° Northeast 460 529 35,200 919 Climbing Los Angeles Center
Mon 07:36:43 PM 35.3414 -116.2347 50° Northeast 455 524 36,100 677 Climbing Los Angeles Center
Mon 07:37:45 PM 35.4231 -116.1175 49° Northeast 454 522 36,600 435 Climbing Los Angeles Center
Mon 07:38:47 PM 35.5211 -115.9756 50° Northeast 454 522 37,000 194 Climbing Los Angeles Center
Mon 07:39:49 PM 35.6100 -115.8500 49° Northeast 460 529 37,000  Level Los Angeles Center
Mon 07:40:51 PM 35.6939 -115.7272 50° Northeast 470 541 37,000  Level Los Angeles Center
Mon 07:41:53 PM 35.7789 -115.6033 50° Northeast 475 547 37,000  Level Los Angeles Center
Mon 07:42:55 PM 35.8614 -115.4769 51° Northeast 477 549 37,000  Level Los Angeles Center
Mon 07:44:09 PM 35.9122 -115.2900 71° East 485 558 37,000  Level Los Angeles Center
Mon 07:45:11 PM 35.9478 -115.0978 77° East 483 556 37,000  Level Los Angeles Center
Mon 07:46:13 PM 35.9794 -114.9350 76° East 487 560 37,000  Level Los Angeles Center
Mon 07:47:15 PM 36.0125 -114.7717 76° East 491 565 37,000  Level Los Angeles Center
Mon 07:48:17 PM 36.0428 -114.6067 77° East 494 568 37,000  Level Los Angeles Center
Mon 07:49:19 PM 36.0733 -114.4428 77° East 492 566 37,000  Level Los Angeles Center
Mon 07:50:20 PM 36.1114 -114.2450 77° East 493 567 37,000  Level Los Angeles Center
Mon 07:51:22 PM 36.1403 -114.0794 78° East 494 568 37,000  Level Los Angeles Center
Mon 07:52:24 PM 36.1714 -113.9131 77° East 496 571 37,000  Level Los Angeles Center
Mon 07:53:26 PM 36.2006 -113.7461 78° East 497 572 37,000  Level Los Angeles Center
Mon 07:54:28 PM 36.2311 -113.5808 77° East 494 568 37,000  Level Los Angeles Center
Mon 07:55:30 PM 36.2608 -113.4142 77° East 494 568 37,000  Level Los Angeles Center
Mon 07:56:32 PM 36.2956 -113.2164 78° East 496 571 37,000  Level Los Angeles Center
Mon 07:57:34 PM 36.3250 -113.0486 78° East 499 574 37,000  Level Los Angeles Center
Mon 07:58:36 PM 36.3544 -112.8789 78° East 504 580 37,000  Level Los Angeles Center
Mon 07:59:38 PM 36.3831 -112.7122 78° East 498 573 37,000  Level Los Angeles Center
Mon 08:00:40 PM 36.4119 -112.5436 78° East 501 577 37,000  Level Los Angeles Center
Mon 08:01:42 PM 36.4467 -112.3408 78° East 503 579 37,000  Level Los Angeles Center
Mon 08:02:44 PM 36.4747 -112.1722 78° East 502 578 37,000  Level Los Angeles Center
Mon 08:03:46 PM 36.5025 -112.0033 78° East 502 578 37,000  Level Los Angeles Center
Mon 08:04:48 PM 36.5286 -111.8353 79° East 499 574 37,000  Level Los Angeles Center
Mon 08:05:25 PM 36.5467 -111.7328 78° East 503 579 37,000  Level Denver Center
Mon 08:06:26 PM 36.5733 -111.5625 79° East 504 580 37,000  Level Denver Center
Mon 08:07:28 PM 36.6014 -111.3917 78° East 505 581 37,000  Level Denver Center
Mon 08:08:30 PM 36.6344 -111.1853 79° East 509 586 37,000  Level Denver Center
Mon 08:09:31 PM 36.6619 -111.0117 79° East 512 589 37,000  Level Denver Center
Mon 08:10:33 PM 36.6892 -110.8400 79° East 510 587 37,000  Level Denver Center
Mon 08:11:47 PM 36.7139 -110.6669 80° East 509 586 37,000  Level Denver Center
Mon 08:12:49 PM 36.7453 -110.4594 79° East 510 587 37,000  Level Denver Center
Mon 08:13:51 PM 36.7717 -110.2853 79° East 513 590 37,000  Level Denver Center
Mon 08:14:52 PM 36.8017 -110.0836 79° East 514 592 37,000  Level Denver Center
Mon 08:15:54 PM 36.8264 -109.9153 80° East 514 592 37,000  Level Denver Center
Mon 08:16:56 PM 36.8547 -109.7178 80° East 517 595 37,000  Level Denver Center
Mon 08:17:57 PM 36.8794 -109.5469 80° East 521 600 37,000  Level Denver Center
Mon 08:18:59 PM 36.9036 -109.3756 80° East 523 602 37,000  Level Denver Center
Mon 08:20:01 PM 36.9325 -109.1717 80° East 528 608 37,000  Level Denver Center
Mon 08:21:02 PM 36.9825 -109.0086 69° East 525 604 37,000  Level Denver Center
Mon 08:22:04 PM 37.0442 -108.8192 68° East 524 603 37,000  Level Denver Center
Mon 08:23:06 PM 37.0969 -108.6567 68° East 524 603 37,000  Level Denver Center
Mon 08:24:07 PM 37.1492 -108.4931 68° East 527 606 37,000  Level Denver Center
Mon 08:25:09 PM 37.2100 -108.3058 68° East 521 600 37,000  Level Denver Center
Mon 08:26:11 PM 37.2619 -108.1419 68° East 525 604 37,000 -48 Level Denver Center
Mon 08:27:13 PM 37.3225 -107.9517 68° East 527 606 36,900 -293 Descending Denver Center
Mon 08:28:14 PM 37.3756 -107.7858 68° East 532 612 36,400 -780 Descending Denver Center
Mon 08:29:16 PM 37.4372 -107.5875 69° East 541 623 35,300 -968 Descending Denver Center
Mon 08:30:18 PM 37.4906 -107.4142 69° East 552 635 34,400 -919 Descending Denver Center
Mon 08:31:20 PM 37.5442 -107.2439 68° East 548 631 33,400 -683 Descending Denver Center
Mon 08:32:21 PM 37.6033 -107.0475 69° East 538 619 33,000 -634 Descending Denver Center
Mon 08:33:23 PM 37.6564 -106.8819 68° East 532 612 32,100 -968 Descending Denver Center
Mon 08:34:25 PM 37.7181 -106.6761 69° East 554 638 31,000 -976 Descending Denver Center
Mon 08:35:26 PM 37.7706 -106.4983 69° East 563 648 30,100 -976 Descending Denver Center
Mon 08:36:28 PM 37.8319 -106.3008 68° East 554 638 29,000 -1,024 Descending Denver Center
Mon 08:37:29 PM 37.8817 -106.1283 70° East 546 628 28,000 -1,024 Descending Denver Center
Mon 08:38:31 PM 37.9400 -105.9342 69° East 531 611 26,900 -1,024 Descending Denver Center
Mon 08:39:32 PM 37.9881 -105.7683 70° East 524 603 25,900 -927 Descending Denver Center
Mon 08:40:34 PM 38.0353 -105.6075 70° East 511 588 25,000 -435 Descending Denver Center
Mon 08:41:36 PM 38.0839 -105.4369 70° East 461 531 25,000 -341 Level Denver Center
Mon 08:42:37 PM 38.1264 -105.2903 70° East 459 528 24,300 -1,707 Descending Denver Center
Mon 08:43:39 PM 38.1736 -105.1264 70° East 445 512 21,500 -2,565 Descending Denver Center
Mon 08:44:41 PM 38.2133 -104.9869 70° East 440 506 19,000 -2,341 Descending Denver Center
Mon 08:45:42 PM 38.2528 -104.8494 70° East 433 498 16,700 -2,000 Descending Denver Center
Mon 08:46:44 PM 38.2986 -104.6989 69° East 414 476 14,900 -1,415 Descending Denver Center
Mon 08:47:45 PM 38.3772 -104.6528 25° Northeast 358 412 13,800 -1,073 Descending Denver Center
Mon 08:48:47 PM 38.4733 -104.6858 345° North 323 372 12,700 -1,500 Descending Denver Center
Mon 08:49:49 PM 38.5592 -104.6867 360° North 320 368 10,700 -1,935 Descending Denver Center

Login

Don't have an account? Register now (free) for customized features, flight alerts, and more!